createdAt,value
2019-01-05T00:00:56.734Z,16.73
2019-01-05T00:03:34.021Z,18.43
2019-01-05T00:06:08.484Z,15.23
2019-01-05T00:08:43.987Z,18.07
2019-01-05T00:11:19.200Z,16.77
2019-01-05T00:16:00.213Z,13.63
2019-01-05T00:19:36.381Z,17.03
2019-01-05T00:22:12.747Z,14.90
2019-01-05T00:24:54.437Z,13.87
2019-01-05T00:29:32.761Z,12.80
2019-01-05T00:33:24.700Z,10.90
2019-01-05T00:38:10.091Z,13.93
2019-01-05T00:41:45.337Z,11.33
2019-01-05T00:45:19.762Z,11.70
2019-01-05T00:47:55.688Z,13.40
2019-01-05T00:50:38.330Z,14.00
2019-01-05T00:53:13.742Z,13.07
2019-01-05T00:55:49.330Z,10.77
2019-01-05T00:58:28.861Z,10.63
2019-01-05T01:01:08.299Z,10.77
2019-01-05T01:03:43.640Z,11.50
2019-01-05T01:06:35.161Z,12.23
2019-01-05T01:09:12.960Z,8.93
2019-01-05T01:12:52.359Z,7.90
2019-01-05T01:15:35.835Z,7.20
2019-01-05T01:20:15.287Z,8.17
2019-01-05T01:22:50.936Z,9.03
2019-01-05T01:26:29.561Z,9.03
2019-01-05T01:29:24.411Z,8.70
2019-01-05T01:33:02.882Z,9.17
2019-01-05T01:36:38.127Z,9.83
2019-01-05T01:39:15.017Z,9.47
2019-01-05T01:43:53.639Z,8.33
2019-01-05T01:46:29.224Z,7.50
2019-01-05T01:49:03.813Z,7.50
2019-01-05T01:51:39.456Z,8.43
2019-01-05T01:54:14.963Z,9.40
2019-01-05T01:57:05.807Z,8.00
2019-01-05T02:00:05.009Z,7.37
2019-01-05T02:02:40.451Z,8.17
2019-01-05T02:05:16.039Z,8.83
2019-01-05T02:07:53.032Z,6.93
2019-01-05T02:10:28.730Z,9.30
2019-01-05T02:14:06.331Z,7.10
2019-01-05T02:16:48.354Z,8.80
2019-01-05T02:20:04.324Z,6.77
2019-01-05T02:22:58.404Z,7.97
2019-01-05T02:26:50.340Z,9.17
2019-01-05T02:29:59.270Z,7.97
2019-01-05T02:32:59.272Z,9.63
2019-01-05T02:36:44.265Z,10.63
2019-01-05T02:41:43.897Z,9.37
2019-01-05T02:45:04.290Z,8.00
2019-01-05T02:49:13.158Z,8.87
2019-01-05T02:53:05.672Z,8.03
2019-01-05T02:58:04.581Z,9.07
2019-01-05T03:03:21.305Z,11.40
2019-01-05T03:07:12.838Z,11.10
2019-01-05T03:10:04.720Z,10.10
2019-01-05T03:12:52.809Z,9.77
2019-01-05T03:15:57.472Z,13.07
2019-01-05T03:19:45.375Z,9.87
2019-01-05T03:24:31.826Z,10.23
2019-01-05T03:29:53.632Z,11.57
2019-01-05T03:33:45.467Z,11.37
2019-01-05T03:38:34.953Z,11.87
2019-01-05T03:41:28.626Z,11.40
2019-01-05T03:44:48.817Z,9.43
2019-01-05T03:48:38.438Z,9.50
2019-01-05T03:51:24.598Z,9.30
2019-01-05T03:55:28.205Z,12.17
2019-01-05T03:58:19.830Z,9.97
2019-01-05T04:11:11.622Z,10.30
2019-01-05T04:14:58.644Z,10.33
2019-01-05T04:20:13.935Z,8.73
2019-01-05T04:24:05.772Z,8.90
2019-01-05T04:28:58.840Z,7.33
2019-01-05T04:32:56.000Z,9.23
2019-01-05T04:36:42.613Z,8.87
2019-01-05T04:39:47.654Z,8.63
2019-01-05T04:43:42.559Z,7.83
2019-01-05T04:47:32.139Z,7.40
2019-01-05T04:51:26.739Z,8.30
2019-01-05T04:54:17.850Z,7.47
2019-01-05T04:58:32.520Z,7.60
2019-01-05T05:02:06.698Z,7.93
2019-01-05T05:05:04.304Z,8.23
2019-01-05T05:10:00.052Z,9.53
2019-01-05T05:13:21.267Z,10.47
2019-01-05T05:18:17.806Z,9.33
2019-01-05T05:22:50.499Z,7.93
2019-01-05T05:25:55.166Z,9.20
2019-01-05T05:28:50.231Z,7.47
2019-01-05T05:32:41.657Z,7.27
2019-01-05T05:37:35.034Z,7.50
2019-01-05T05:40:21.029Z,9.07
2019-01-05T05:44:14.705Z,8.10
2019-01-05T05:49:13.156Z,9.73
2019-01-05T05:52:03.840Z,8.23
2019-01-05T05:55:29.728Z,9.23
2019-01-05T06:00:18.292Z,6.83
2019-01-05T06:05:45.362Z,7.83
2019-01-05T06:08:40.266Z,7.70
2019-01-05T06:11:34.138Z,6.60
2019-01-05T06:16:22.907Z,6.73
2019-01-05T06:19:09.818Z,4.07
2019-01-05T06:23:02.166Z,4.47
2019-01-05T06:25:56.504Z,3.67
2019-01-05T06:29:46.853Z,3.13
2019-01-05T06:33:35.820Z,2.00
2019-01-05T06:36:22.836Z,2.10
2019-01-05T06:39:12.717Z,2.17
2019-01-05T06:42:02.498Z,2.03
2019-01-05T06:44:47.465Z,2.30
2019-01-05T06:50:34.910Z,3.40
2019-01-05T06:53:23.973Z,2.97
2019-01-05T06:59:18.381Z,4.53
2019-01-05T07:02:16.390Z,3.63
2019-01-05T07:05:15.145Z,2.90
2019-01-05T07:08:10.966Z,4.00
2019-01-05T07:12:01.368Z,4.23
2019-01-05T07:15:02.962Z,10.53
2019-01-05T07:18:59.776Z,2.80
2019-01-05T07:22:55.400Z,2.20
2019-01-05T07:25:45.282Z,11.50
2019-01-05T07:28:32.400Z,3.00
2019-01-05T07:32:02.424Z,9.63
2019-01-05T07:35:11.250Z,2.43
2019-01-05T07:37:58.163Z,6.83
2019-01-05T07:42:47.959Z,2.57
2019-01-05T07:45:33.640Z,2.83
2019-01-05T07:49:23.530Z,4.10
2019-01-05T07:52:39.012Z,3.23
2019-01-05T07:55:28.997Z,5.20
2019-01-05T08:02:18.090Z,3.30
2019-01-05T08:06:01.833Z,6.90
2019-01-05T08:11:02.480Z,8.70
2019-01-05T08:13:54.104Z,5.93
2019-01-05T08:16:43.065Z,5.53
2019-01-05T08:20:33.159Z,4.63
2019-01-05T08:24:23.253Z,4.87
2019-01-05T08:27:14.261Z,5.07
2019-01-05T08:34:15.742Z,4.87
2019-01-05T08:38:33.587Z,9.13
2019-01-05T08:41:24.186Z,7.67
2019-01-05T08:46:18.075Z,7.27
2019-01-05T08:52:17.505Z,5.73
2019-01-05T08:57:14.770Z,7.07
2019-01-05T09:00:07.828Z,9.73
2019-01-05T09:03:11.478Z,8.87
2019-01-05T09:08:04.965Z,8.77
2019-01-05T09:11:50.603Z,10.13
2019-01-05T09:15:36.600Z,7.87
2019-01-05T09:19:38.982Z,7.53
2019-01-05T09:22:41.051Z,7.97
2019-01-05T09:25:29.192Z,5.30
2019-01-05T09:28:15.285Z,8.37
2019-01-05T09:31:10.186Z,8.10
2019-01-05T09:36:29.063Z,10.10
2019-01-05T09:41:37.086Z,8.27
2019-01-05T09:44:30.640Z,6.87
2019-01-05T09:50:48.612Z,6.20
2019-01-05T09:55:37.115Z,9.77
2019-01-05T10:00:10.278Z,15.03
2019-01-05T10:03:04.155Z,8.87
2019-01-05T10:05:59.875Z,8.10
2019-01-05T10:09:21.194Z,5.93
2019-01-05T10:12:21.214Z,7.67
2019-01-05T10:18:11.628Z,5.63
2019-01-05T10:23:27.331Z,7.60
2019-01-05T10:27:18.961Z,7.53
2019-01-05T10:31:08.029Z,8.80
2019-01-05T10:33:54.531Z,9.10
2019-01-05T10:37:08.990Z,13.90
2019-01-05T10:40:03.892Z,14.17
2019-01-05T10:45:02.593Z,20.00
2019-01-05T10:50:30.070Z,14.97
2019-01-05T10:55:27.547Z,7.57
2019-01-05T11:00:30.815Z,9.43
2019-01-05T11:03:29.799Z,7.27
2019-01-05T11:10:32.765Z,5.97
2019-01-05T11:15:31.160Z,5.57
2019-01-05T11:19:21.356Z,5.57
2019-01-05T11:23:19.341Z,5.10
2019-01-05T11:26:49.666Z,4.23
2019-01-05T11:30:13.960Z,6.23
2019-01-05T11:33:01.575Z,7.03
2019-01-05T11:35:49.010Z,4.30
2019-01-05T11:39:37.623Z,5.43
2019-01-05T11:45:27.777Z,6.33
2019-01-05T11:48:13.565Z,14.23
2019-01-05T11:52:06.116Z,14.70
2019-01-05T11:56:59.394Z,18.67
2019-01-05T12:01:51.809Z,10.47
2019-01-05T12:05:45.422Z,10.47
2019-01-05T12:08:31.456Z,16.47
2019-01-05T12:12:19.152Z,22.97
2019-01-05T12:16:14.879Z,18.33
2019-01-05T12:19:09.574Z,12.20
2019-01-05T12:21:54.644Z,18.17
2019-01-05T12:25:53.031Z,17.50
2019-01-05T12:29:39.644Z,21.33
2019-01-05T12:32:25.588Z,13.83
2019-01-05T12:37:26.180Z,11.97
2019-01-05T12:41:45.869Z,14.53
2019-01-05T12:45:38.523Z,10.03
2019-01-05T12:49:28.412Z,11.43
2019-01-05T12:53:24.739Z,8.93
2019-01-05T12:56:15.351Z,4.73
2019-01-05T13:00:06.573Z,8.27
2019-01-05T13:03:59.021Z,4.73
2019-01-05T13:09:03.766Z,6.07
2019-01-05T13:14:04.311Z,6.00
2019-01-05T13:16:56.264Z,10.63
2019-01-05T13:19:41.313Z,10.23
2019-01-05T13:23:26.797Z,8.10
2019-01-05T13:26:23.642Z,7.63
2019-01-05T13:32:18.870Z,6.73
2019-01-05T13:35:22.478Z,5.63
2019-01-05T13:38:23.723Z,4.87
2019-01-05T13:41:16.371Z,4.90
2019-01-05T13:44:49.466Z,6.13
2019-01-05T13:48:40.948Z,10.53
2019-01-05T13:52:01.801Z,7.23
2019-01-05T13:54:37.640Z,20.13
2019-01-05T13:57:20.266Z,20.20
2019-01-05T14:01:58.343Z,9.27
2019-01-05T14:04:39.667Z,8.70
2019-01-05T14:08:14.811Z,9.57
2019-01-05T14:10:51.743Z,8.23
2019-01-05T14:14:28.572Z,8.30
2019-01-05T14:17:34.126Z,7.03
2019-01-05T14:20:16.375Z,9.60
2019-01-05T14:22:51.744Z,7.70
2019-01-05T14:25:26.744Z,9.73
2019-01-05T14:28:17.198Z,10.50
2019-01-05T14:31:07.695Z,5.37
2019-01-05T14:33:50.991Z,4.47
2019-01-05T14:36:27.345Z,11.00
2019-01-05T14:39:17.689Z,6.57
2019-01-05T14:43:55.290Z,8.00
2019-01-05T14:46:30.684Z,15.43
2019-01-05T14:51:10.594Z,14.43
2019-01-05T14:53:45.965Z,16.33
2019-01-05T14:57:21.899Z,9.43
2019-01-05T15:00:11.135Z,14.20
2019-01-05T15:02:49.376Z,15.43
2019-01-05T15:06:22.369Z,11.83
2019-01-05T15:09:00.519Z,7.73
2019-01-05T15:13:42.896Z,5.83
2019-01-05T15:17:20.703Z,12.37
2019-01-05T15:19:59.730Z,15.57
2019-01-05T15:24:40.820Z,13.13
2019-01-05T15:28:17.703Z,14.57
2019-01-05T15:31:56.943Z,8.83
2019-01-05T15:34:32.183Z,11.93
2019-01-05T15:37:07.625Z,9.13
2019-01-05T15:39:42.719Z,11.97
2019-01-05T15:44:21.207Z,9.67
2019-01-05T15:46:56.396Z,7.80
2019-01-05T15:49:42.830Z,10.53
2019-01-05T15:53:15.662Z,11.20
2019-01-05T15:56:52.810Z,9.37
2019-01-05T15:59:29.806Z,12.90
2019-01-05T16:02:21.111Z,10.87
2019-01-05T16:04:57.148Z,11.90
2019-01-05T16:07:37.314Z,7.40
2019-01-05T16:10:20.599Z,8.00
2019-01-05T16:12:55.863Z,8.50
2019-01-05T16:15:35.503Z,7.73
2019-01-05T16:18:10.769Z,10.40
2019-01-05T16:22:49.298Z,9.83
2019-01-05T16:27:27.725Z,6.87
2019-01-05T16:31:02.873Z,6.93
2019-01-05T16:33:39.859Z,8.77
2019-01-05T16:36:14.491Z,11.40
2019-01-05T16:38:49.713Z,10.77
2019-01-05T16:41:37.138Z,9.17
2019-01-05T16:45:12.180Z,11.00
2019-01-05T16:47:52.231Z,7.60
2019-01-05T16:51:03.823Z,11.17
2019-01-05T16:54:10.499Z,15.90
2019-01-05T16:57:01.820Z,8.97
2019-01-05T17:01:40.344Z,6.87
2019-01-05T17:04:15.696Z,10.93
2019-01-05T17:06:57.787Z,11.47
2019-01-05T17:10:40.405Z,8.33
2019-01-05T17:13:15.740Z,10.57
2019-01-05T17:15:50.975Z,7.97
2019-01-05T17:19:24.183Z,10.07
2019-01-05T17:22:02.972Z,10.03
2019-01-05T17:24:39.782Z,8.03
2019-01-05T17:27:14.848Z,6.43
2019-01-05T17:29:49.953Z,8.47
2019-01-05T17:32:33.124Z,8.10
2019-01-05T17:35:08.668Z,11.27
2019-01-05T17:37:43.147Z,6.87
2019-01-05T17:40:18.443Z,8.57
2019-01-05T17:42:53.745Z,7.63
2019-01-05T17:45:28.967Z,7.03
2019-01-05T17:48:04.303Z,8.07
2019-01-05T17:51:38.324Z,5.13
2019-01-05T17:54:13.696Z,7.97
2019-01-05T17:56:53.017Z,7.87
2019-01-05T17:59:43.296Z,7.93
2019-01-05T18:02:18.635Z,7.57
2019-01-05T18:05:54.086Z,8.70
2019-01-05T18:08:30.378Z,6.80
2019-01-05T18:11:09.647Z,6.10
2019-01-05T18:13:45.855Z,9.53
2019-01-05T18:16:28.050Z,8.50
2019-01-05T18:20:01.353Z,7.33
2019-01-05T18:23:38.694Z,9.73
2019-01-05T18:26:14.031Z,9.23
2019-01-05T18:29:03.405Z,7.50
2019-01-05T18:33:45.513Z,7.67
2019-01-05T18:37:26.500Z,5.47
2019-01-05T18:40:09.015Z,4.17
2019-01-05T18:42:45.170Z,5.27
2019-01-05T18:45:20.644Z,4.83
2019-01-05T18:48:06.053Z,5.23
2019-01-05T18:51:39.097Z,7.23
2019-01-05T18:55:14.189Z,5.77
2019-01-05T18:59:53.586Z,9.13
2019-01-05T19:02:28.656Z,8.30
2019-01-05T19:05:03.988Z,6.47
2019-01-05T19:07:39.304Z,10.30
2019-01-05T19:11:20.176Z,7.97
2019-01-05T19:13:59.281Z,8.67
2019-01-05T19:16:33.993Z,12.27
2019-01-05T19:19:11.051Z,8.40
2019-01-05T19:21:55.488Z,15.17
2019-01-05T19:25:28.870Z,10.80
2019-01-05T19:28:04.422Z,13.10
2019-01-05T19:30:39.395Z,14.60
2019-01-05T19:33:26.711Z,12.90
2019-01-05T19:36:02.136Z,9.43
2019-01-05T19:38:52.613Z,10.13
2019-01-05T19:43:32.392Z,8.27
2019-01-05T19:46:08.589Z,7.63
2019-01-05T19:48:43.975Z,15.50
2019-01-05T19:51:19.436Z,7.67
2019-01-05T19:53:54.864Z,10.33
2019-01-05T19:58:37.183Z,11.03
2019-01-05T20:01:16.423Z,8.97
2019-01-05T20:03:53.976Z,11.10
2019-01-05T20:08:31.823Z,11.37
2019-01-05T20:11:19.774Z,8.87
2019-01-05T20:13:54.835Z,8.73
2019-01-05T20:16:34.910Z,8.37
2019-01-05T20:19:10.629Z,12.33
2019-01-05T20:21:50.858Z,10.70
2019-01-05T20:24:34.106Z,12.73
2019-01-05T20:27:26.624Z,12.13
2019-01-05T20:30:01.764Z,14.30
2019-01-05T20:34:40.089Z,8.87
2019-01-05T20:37:19.423Z,11.93
2019-01-05T20:40:53.746Z,12.23
2019-01-05T20:43:29.227Z,10.93
2019-01-05T20:46:04.395Z,11.13
2019-01-05T20:48:39.771Z,8.10
2019-01-05T20:51:15.019Z,8.80
2019-01-05T20:53:50.189Z,11.30
2019-01-05T20:56:25.591Z,13.00
2019-01-05T20:59:00.934Z,9.17
2019-01-05T21:01:36.377Z,7.93
2019-01-05T21:04:12.846Z,13.87
2019-01-05T21:06:59.410Z,12.13
2019-01-05T21:10:05.206Z,10.30
2019-01-05T21:12:40.602Z,8.57
2019-01-05T21:17:27.269Z,7.47
2019-01-05T21:20:02.920Z,8.77
2019-01-05T21:22:38.158Z,6.97
2019-01-05T21:25:13.539Z,5.77
2019-01-05T21:27:49.352Z,6.97
2019-01-05T21:30:27.554Z,9.70
2019-01-05T21:33:02.956Z,8.27
2019-01-05T21:35:40.334Z,8.43
2019-01-05T21:38:22.805Z,5.73
2019-01-05T21:43:05.120Z,7.03
2019-01-05T21:46:38.829Z,12.40
2019-01-05T21:50:16.840Z,7.13
2019-01-05T21:52:51.984Z,6.47
2019-01-05T21:56:25.278Z,5.83
2019-01-05T22:01:07.290Z,5.93
2019-01-05T22:04:47.451Z,4.70
2019-01-05T22:07:28.834Z,6.37
2019-01-05T22:10:04.383Z,9.40
2019-01-05T22:12:39.724Z,8.67
2019-01-05T22:15:14.960Z,4.30
2019-01-05T22:17:52.248Z,6.30
2019-01-05T22:20:32.608Z,2.80
2019-01-05T22:23:07.847Z,3.53
2019-01-05T22:25:42.992Z,3.93
2019-01-05T22:28:18.184Z,6.47
2019-01-05T22:30:53.496Z,6.70
2019-01-05T22:33:34.846Z,4.67
2019-01-05T22:36:10.043Z,6.27
2019-01-05T22:38:45.140Z,5.13
2019-01-05T22:42:19.034Z,7.57
2019-01-05T22:45:13.527Z,4.97
2019-01-05T22:49:54.922Z,3.33
2019-01-05T22:52:36.510Z,4.40
2019-01-05T22:55:11.992Z,5.27
2019-01-05T22:59:50.175Z,7.57
2019-01-05T23:02:26.531Z,5.07
2019-01-05T23:05:04.751Z,6.07
2019-01-05T23:07:40.164Z,7.53
2019-01-05T23:11:16.944Z,3.87
2019-01-05T23:13:52.068Z,4.73
2019-01-05T23:18:35.304Z,4.77
2019-01-05T23:21:10.558Z,4.70
2019-01-05T23:24:06.005Z,6.00
2019-01-05T23:26:40.425Z,4.40
2019-01-05T23:29:23.652Z,6.37
2019-01-05T23:32:00.835Z,7.00
2019-01-05T23:34:39.250Z,4.93
2019-01-05T23:37:14.594Z,5.90
2019-01-05T23:39:53.927Z,6.07
2019-01-05T23:42:29.064Z,2.80
2019-01-05T23:45:12.494Z,3.30
2019-01-05T23:47:47.739Z,3.70
2019-01-05T23:52:30.974Z,2.40
2019-01-05T23:55:06.443Z,4.23
2019-01-05T23:57:41.898Z,4.03
